createdAt,value
2019-06-26T00:00:18.435Z,58.64
2019-06-26T00:02:45.782Z,58.72
2019-06-26T00:05:12.917Z,58.66
2019-06-26T00:07:39.976Z,58.61
2019-06-26T00:10:07.953Z,58.60
2019-06-26T00:12:37.341Z,58.63
2019-06-26T00:15:04.681Z,58.63
2019-06-26T00:17:31.635Z,58.71
2019-06-26T00:19:58.835Z,58.69
2019-06-26T00:22:25.797Z,58.60
2019-06-26T00:24:52.768Z,58.53
2019-06-26T00:27:23.168Z,58.47
2019-06-26T00:29:50.163Z,58.53
2019-06-26T00:32:17.175Z,58.54
2019-06-26T00:34:44.204Z,58.52
2019-06-26T00:37:11.177Z,58.48
2019-06-26T00:39:38.148Z,58.54
2019-06-26T00:42:08.223Z,58.54
2019-06-26T00:44:35.214Z,58.54
2019-06-26T00:47:02.214Z,58.66
2019-06-26T00:49:32.721Z,58.70
2019-06-26T00:51:59.687Z,58.67
2019-06-26T00:54:26.685Z,58.76
2019-06-26T00:56:53.688Z,59.11
2019-06-26T00:59:20.670Z,59.69
2019-06-26T01:01:47.927Z,59.99
2019-06-26T01:04:19.595Z,60.16
2019-06-26T01:06:46.585Z,60.30
2019-06-26T01:09:14.094Z,60.46
2019-06-26T01:11:41.877Z,60.56
2019-06-26T01:14:08.915Z,60.66
2019-06-26T01:16:35.921Z,60.76
2019-06-26T01:19:03.343Z,60.99
2019-06-26T01:21:30.306Z,61.17
2019-06-26T01:23:57.397Z,61.30
2019-06-26T01:26:24.374Z,61.37
2019-06-26T01:28:51.360Z,61.48
2019-06-26T01:31:18.334Z,61.69
2019-06-26T01:33:45.369Z,61.93
2019-06-26T01:36:12.383Z,62.35
2019-06-26T01:38:39.359Z,62.40
2019-06-26T01:41:06.404Z,62.46
2019-06-26T01:43:33.439Z,62.78
2019-06-26T01:46:00.546Z,62.99
2019-06-26T01:48:27.540Z,63.35
2019-06-26T01:50:54.554Z,64.17
2019-06-26T01:53:21.538Z,64.43
2019-06-26T01:55:51.494Z,64.38
2019-06-26T01:58:18.554Z,64.31
2019-06-26T02:00:45.527Z,65.22
2019-06-26T02:03:14.997Z,65.19
2019-06-26T02:05:42.018Z,65.28
2019-06-26T02:08:09.013Z,65.24
2019-06-26T02:10:36.142Z,65.29
2019-06-26T02:13:03.157Z,66.22
2019-06-26T02:15:30.143Z,66.13
2019-06-26T02:17:59.479Z,65.98
2019-06-26T02:20:26.501Z,66.43
2019-06-26T02:22:53.491Z,66.00
2019-06-26T02:25:22.910Z,65.43
2019-06-26T02:27:49.891Z,66.19
2019-06-26T02:30:17.572Z,65.96
2019-06-26T02:32:44.586Z,65.94
2019-06-26T02:35:11.551Z,66.58
2019-06-26T02:37:38.592Z,66.58
2019-06-26T02:40:06.211Z,66.89
2019-06-26T02:42:33.197Z,67.63
2019-06-26T02:45:00.308Z,67.93
2019-06-26T02:47:27.308Z,67.93
2019-06-26T02:49:54.281Z,67.51
2019-06-26T02:52:21.341Z,67.55
2019-06-26T02:54:48.300Z,68.25
2019-06-26T02:57:15.352Z,68.08
2019-06-26T02:59:42.348Z,68.58
2019-06-26T03:02:09.332Z,68.34
2019-06-26T03:04:38.001Z,68.82
2019-06-26T03:07:04.989Z,69.23
2019-06-26T03:09:35.880Z,69.59
2019-06-26T03:12:02.877Z,69.07
2019-06-26T03:14:29.885Z,69.04
2019-06-26T03:17:01.408Z,69.16
2019-06-26T03:19:28.412Z,68.79
2019-06-26T03:21:55.409Z,68.78
2019-06-26T03:24:22.387Z,68.90
2019-06-26T03:26:49.366Z,68.50
2019-06-26T03:29:16.365Z,68.47
2019-06-26T03:31:44.543Z,69.12
2019-06-26T03:34:11.512Z,68.71
2019-06-26T03:36:38.510Z,68.62
2019-06-26T03:39:06.517Z,68.88
2019-06-26T03:41:33.513Z,68.70
2019-06-26T03:44:00.524Z,68.85
2019-06-26T03:46:27.513Z,68.95
2019-06-26T03:48:54.468Z,69.23
2019-06-26T03:51:21.462Z,69.12
2019-06-26T03:53:51.408Z,68.64
2019-06-26T03:56:18.371Z,68.75
2019-06-26T03:58:45.345Z,68.63
2019-06-26T04:01:12.331Z,68.28
2019-06-26T04:03:39.358Z,69.12
2019-06-26T04:06:06.331Z,68.75
2019-06-26T04:08:33.373Z,68.43
2019-06-26T04:11:00.397Z,68.46
2019-06-26T04:13:27.402Z,68.01
2019-06-26T04:15:57.285Z,67.35
2019-06-26T04:18:24.388Z,67.67
2019-06-26T04:20:51.363Z,67.53
2019-06-26T04:23:20.681Z,67.21
2019-06-26T04:25:47.684Z,67.46
2019-06-26T04:28:14.651Z,66.83
2019-06-26T04:30:41.633Z,66.05
2019-06-26T04:33:08.602Z,66.44
2019-06-26T04:35:35.562Z,65.92
2019-06-26T04:38:05.515Z,65.52
2019-06-26T04:40:32.491Z,64.89
2019-06-26T04:43:00.659Z,64.96
2019-06-26T04:45:27.676Z,64.42
2019-06-26T04:50:22.419Z,63.54
2019-06-26T04:52:49.602Z,63.25
2019-06-26T04:55:16.689Z,63.00
2019-06-26T04:57:43.711Z,62.59
2019-06-26T05:00:14.206Z,61.64
2019-06-26T05:02:41.169Z,61.63
2019-06-26T05:05:08.364Z,61.04
2019-06-26T05:07:35.502Z,59.98
2019-06-26T05:10:03.474Z,60.95
2019-06-26T05:12:30.480Z,60.00
2019-06-26T05:14:57.537Z,60.80
2019-06-26T05:17:29.977Z,60.25
2019-06-26T05:19:57.005Z,59.60
2019-06-26T05:22:24.003Z,60.24
2019-06-26T05:24:51.033Z,60.29
2019-06-26T05:27:18.004Z,60.05
2019-06-26T05:29:44.957Z,59.65
2019-06-26T05:32:13.766Z,58.93
2019-06-26T05:34:40.792Z,59.68
2019-06-26T05:37:07.743Z,59.23
2019-06-26T05:39:34.738Z,59.46
2019-06-26T05:42:01.747Z,59.70
2019-06-26T05:44:28.697Z,59.09
2019-06-26T05:46:55.667Z,58.50
2019-06-26T05:49:22.664Z,58.67
2019-06-26T05:51:49.688Z,58.90
2019-06-26T05:54:16.810Z,58.87
2019-06-26T05:56:45.419Z,58.60
2019-06-26T05:59:17.945Z,58.32
2019-06-26T06:01:44.940Z,58.53
2019-06-26T06:04:11.942Z,59.18
2019-06-26T06:06:42.048Z,58.40
2019-06-26T06:09:07.906Z,59.00
2019-06-26T06:11:34.960Z,59.17
2019-06-26T06:14:01.936Z,59.51
2019-06-26T06:16:28.944Z,59.26
2019-06-26T06:18:55.928Z,60.21
2019-06-26T06:21:22.931Z,60.75
2019-06-26T06:23:49.949Z,60.83
2019-06-26T06:26:16.926Z,62.50
2019-06-26T06:28:43.894Z,62.61
2019-06-26T06:31:10.901Z,63.20
2019-06-26T06:33:37.955Z,63.09
2019-06-26T06:36:04.957Z,66.07
2019-06-26T06:38:36.478Z,64.93
2019-06-26T06:41:03.479Z,64.75
2019-06-26T06:43:30.549Z,65.46
2019-06-26T06:45:57.554Z,66.68
2019-06-26T06:48:24.625Z,67.31
2019-06-26T06:50:51.589Z,66.35
2019-06-26T06:53:18.638Z,67.22
2019-06-26T06:55:45.733Z,68.34
2019-06-26T06:58:12.727Z,68.05
2019-06-26T07:00:42.038Z,67.99
2019-06-26T07:03:09.003Z,68.35
2019-06-26T07:05:35.973Z,68.50
2019-06-26T07:08:03.006Z,69.36
2019-06-26T07:10:30.310Z,69.47
2019-06-26T07:12:57.344Z,69.32
2019-06-26T07:15:24.862Z,69.30
2019-06-26T07:17:52.275Z,69.52
2019-06-26T07:20:19.285Z,68.80
2019-06-26T07:22:50.007Z,69.56
2019-06-26T07:25:17.079Z,69.97
2019-06-26T07:27:44.192Z,69.77
2019-06-26T07:30:13.780Z,70.53
2019-06-26T07:32:40.769Z,71.16
2019-06-26T07:35:07.745Z,70.84
2019-06-26T07:37:34.766Z,70.84
2019-06-26T07:40:02.514Z,70.73
2019-06-26T07:42:29.698Z,70.87
2019-06-26T07:44:56.693Z,70.70
2019-06-26T07:47:41.544Z,70.67
2019-06-26T07:49:52.609Z,70.30
2019-06-26T07:52:19.639Z,69.86
2019-06-26T07:54:49.179Z,70.94
2019-06-26T07:57:16.183Z,70.62
2019-06-26T07:59:43.150Z,71.11
2019-06-26T08:02:12.406Z,71.09
2019-06-26T08:04:39.432Z,70.62
2019-06-26T08:07:06.464Z,70.49
2019-06-26T08:09:33.553Z,70.94
2019-06-26T08:12:00.528Z,70.22
2019-06-26T08:14:27.506Z,70.30
2019-06-26T08:16:54.505Z,69.89
2019-06-26T08:19:21.512Z,70.28
2019-06-26T08:21:48.502Z,70.52
2019-06-26T08:24:15.577Z,70.53
2019-06-26T08:26:42.568Z,70.11
2019-06-26T08:29:09.526Z,70.38
2019-06-26T08:31:40.077Z,70.17
2019-06-26T08:34:07.079Z,69.55
2019-06-26T08:36:34.063Z,69.33
2019-06-26T08:39:06.713Z,69.41
2019-06-26T08:41:33.736Z,69.87
2019-06-26T08:44:00.729Z,69.24
2019-06-26T08:46:27.742Z,69.48
2019-06-26T08:48:54.739Z,69.34
2019-06-26T08:51:21.737Z,69.07
2019-06-26T08:53:48.705Z,68.71
2019-06-26T08:56:15.677Z,68.76
2019-06-26T08:58:42.713Z,69.60
2019-06-26T09:01:09.662Z,69.22
2019-06-26T09:03:36.628Z,69.11
2019-06-26T09:06:03.661Z,69.76
2019-06-26T09:08:30.894Z,70.07
2019-06-26T09:10:57.882Z,69.71
2019-06-26T09:13:29.532Z,69.64
2019-06-26T09:15:56.567Z,69.12
2019-06-26T09:18:35.054Z,68.78
2019-06-26T09:20:52.457Z,69.18
2019-06-26T09:23:19.447Z,69.04
2019-06-26T09:25:46.417Z,69.19
2019-06-26T09:28:13.410Z,68.84
2019-06-26T09:30:43.239Z,69.65
2019-06-26T09:33:10.208Z,69.29
2019-06-26T09:35:37.218Z,68.92
2019-06-26T09:38:05.479Z,69.29
2019-06-26T09:40:32.490Z,68.77
2019-06-26T09:42:59.464Z,69.04
2019-06-26T09:45:26.422Z,68.71
2019-06-26T09:47:53.404Z,69.25
2019-06-26T09:50:20.400Z,68.29
2019-06-26T09:52:53.627Z,68.96
2019-06-26T09:55:20.624Z,68.72
2019-06-26T09:57:47.769Z,68.20
2019-06-26T10:00:18.262Z,68.56
2019-06-26T10:02:45.268Z,68.19
2019-06-26T10:05:12.662Z,67.78
2019-06-26T10:07:39.646Z,67.88
2019-06-26T10:10:06.707Z,68.01
2019-06-26T10:12:33.661Z,67.81
2019-06-26T10:15:00.655Z,67.32
2019-06-26T10:17:27.676Z,67.49
2019-06-26T10:19:54.630Z,67.39
2019-06-26T10:22:21.656Z,67.39
2019-06-26T10:24:50.906Z,68.21
2019-06-26T10:27:17.865Z,68.50
2019-06-26T10:29:44.897Z,68.77
2019-06-26T10:32:20.591Z,68.61
2019-06-26T10:34:47.800Z,68.75
2019-06-26T10:37:14.809Z,68.27
2019-06-26T10:39:41.816Z,67.93
2019-06-26T10:42:08.819Z,67.51
2019-06-26T10:44:35.812Z,67.30
2019-06-26T10:47:02.801Z,67.79
2019-06-26T10:49:29.815Z,67.42
2019-06-26T10:51:56.854Z,66.76
2019-06-26T10:54:23.798Z,66.70
2019-06-26T10:56:50.772Z,66.36
2019-06-26T10:59:17.736Z,66.61
2019-06-26T11:01:44.802Z,66.02
2019-06-26T11:04:11.809Z,65.54
2019-06-26T11:06:38.806Z,65.57
2019-06-26T11:09:06.668Z,64.79
2019-06-26T11:11:33.625Z,64.69
2019-06-26T11:14:02.892Z,64.20
2019-06-26T11:16:29.864Z,63.97
2019-06-26T11:18:56.842Z,65.00
2019-06-26T11:21:23.814Z,64.77
2019-06-26T11:23:54.253Z,65.05
2019-06-26T11:26:21.232Z,64.81
2019-06-26T11:28:48.222Z,65.83
2019-06-26T11:31:16.923Z,65.90
2019-06-26T11:33:43.923Z,65.34
2019-06-26T11:36:10.945Z,65.13
2019-06-26T11:38:40.156Z,65.12
2019-06-26T11:41:07.153Z,64.97
2019-06-26T11:43:34.213Z,64.63
2019-06-26T11:46:04.073Z,63.66
2019-06-26T11:48:31.083Z,63.22
2019-06-26T11:50:58.089Z,65.17
2019-06-26T11:53:25.130Z,64.39
2019-06-26T11:55:52.185Z,64.51
2019-06-26T11:58:19.356Z,64.97
2019-06-26T12:00:46.328Z,65.15
2019-06-26T12:03:13.512Z,64.98
2019-06-26T12:05:40.529Z,63.74
2019-06-26T12:08:07.645Z,63.85
2019-06-26T12:10:34.900Z,63.73
2019-06-26T12:13:04.245Z,64.46
2019-06-26T12:15:30.915Z,63.73
2019-06-26T12:17:57.903Z,63.58
2019-06-26T12:20:25.219Z,63.69
2019-06-26T12:22:52.588Z,63.17
2019-06-26T12:25:19.626Z,62.76
2019-06-26T12:27:46.597Z,63.12
2019-06-26T12:30:17.240Z,62.81
2019-06-26T12:33:01.491Z,61.86
2019-06-26T12:35:13.360Z,62.41
2019-06-26T12:37:40.361Z,61.28
2019-06-26T12:40:07.830Z,61.67
2019-06-26T12:42:34.835Z,62.63
2019-06-26T12:45:01.852Z,62.39
2019-06-26T12:47:28.848Z,63.22
2019-06-26T12:49:55.828Z,62.06
2019-06-26T12:52:22.853Z,62.24
2019-06-26T12:54:49.803Z,62.60
2019-06-26T12:57:20.871Z,62.73
2019-06-26T12:59:57.390Z,62.69
2019-06-26T13:02:18.813Z,61.99
2019-06-26T13:04:45.916Z,61.28
2019-06-26T13:07:12.855Z,61.40
2019-06-26T13:09:39.895Z,61.53
2019-06-26T13:12:06.915Z,61.04
2019-06-26T13:14:33.899Z,60.46
2019-06-26T13:17:01.015Z,59.76
2019-06-26T13:19:28.016Z,60.83
2019-06-26T13:21:54.998Z,60.82
2019-06-26T13:24:22.040Z,61.32
2019-06-26T13:26:49.012Z,60.94
2019-06-26T13:29:16.030Z,60.52
2019-06-26T13:31:46.245Z,59.85
2019-06-26T13:34:14.552Z,59.85
2019-06-26T13:36:41.576Z,59.71
2019-06-26T13:39:08.566Z,60.03
2019-06-26T13:41:37.320Z,60.35
2019-06-26T13:44:04.314Z,61.11
2019-06-26T13:46:31.284Z,60.08
2019-06-26T13:49:02.147Z,60.42
2019-06-26T13:51:29.182Z,60.46
2019-06-26T13:53:56.297Z,60.94
2019-06-26T13:56:25.634Z,60.63
2019-06-26T13:58:52.690Z,60.08
2019-06-26T14:01:22.919Z,59.12
2019-06-26T14:03:48.688Z,59.27
2019-06-26T14:06:15.696Z,59.33
2019-06-26T14:08:42.673Z,59.68
2019-06-26T14:11:10.877Z,59.19
2019-06-26T14:13:41.541Z,59.04
2019-06-26T14:16:06.763Z,59.87
2019-06-26T14:18:33.739Z,60.31
2019-06-26T14:21:00.781Z,59.72
2019-06-26T14:23:28.967Z,59.49
2019-06-26T14:25:55.901Z,60.40
2019-06-26T14:28:24.602Z,60.35
2019-06-26T14:30:51.575Z,60.29
2019-06-26T14:33:18.586Z,59.13
2019-06-26T14:35:45.577Z,60.68
2019-06-26T14:38:12.576Z,60.73
2019-06-26T14:40:39.612Z,60.38
2019-06-26T14:43:10.215Z,60.08
2019-06-26T14:45:37.207Z,59.48
2019-06-26T14:48:04.213Z,60.01
2019-06-26T14:50:31.189Z,59.92
2019-06-26T14:52:58.165Z,59.91
2019-06-26T14:55:25.202Z,60.55
2019-06-26T14:57:52.179Z,60.77
2019-06-26T15:00:19.273Z,60.51
2019-06-26T15:02:46.268Z,60.57
2019-06-26T15:05:13.278Z,60.83
2019-06-26T15:07:40.244Z,62.08
2019-06-26T15:10:07.805Z,60.80
2019-06-26T15:12:34.839Z,61.26
2019-06-26T15:15:01.945Z,61.26
2019-06-26T15:17:28.976Z,60.96
2019-06-26T15:19:59.093Z,61.51
2019-06-26T15:22:26.076Z,62.62
2019-06-26T15:24:53.097Z,62.06
2019-06-26T15:27:20.107Z,61.63
2019-06-26T15:29:47.086Z,61.94
2019-06-26T15:32:14.114Z,61.67
2019-06-26T15:34:41.087Z,61.43
2019-06-26T15:37:08.054Z,60.84
2019-06-26T15:39:35.055Z,60.96
2019-06-26T15:42:02.057Z,61.72
2019-06-26T15:44:29.052Z,61.46
2019-06-26T15:46:56.111Z,62.00
2019-06-26T15:49:23.208Z,61.42
2019-06-26T15:51:50.201Z,61.76
2019-06-26T15:54:17.190Z,62.24
2019-06-26T15:56:44.200Z,62.91
2019-06-26T15:59:11.164Z,63.15
2019-06-26T16:01:38.152Z,63.43
2019-06-26T16:04:09.788Z,64.07
2019-06-26T16:06:36.818Z,63.97
2019-06-26T16:09:05.045Z,64.31
2019-06-26T16:11:32.125Z,64.60
2019-06-26T16:13:59.135Z,64.50
2019-06-26T16:16:26.179Z,64.24
2019-06-26T16:18:58.955Z,64.08
2019-06-26T16:21:25.943Z,64.26
2019-06-26T16:23:52.934Z,64.49
2019-06-26T16:26:19.958Z,64.48
2019-06-26T16:28:48.149Z,64.06
2019-06-26T16:31:15.207Z,64.34
2019-06-26T16:33:42.183Z,64.36
2019-06-26T16:36:09.158Z,64.88
2019-06-26T16:38:36.148Z,65.00
2019-06-26T16:41:03.249Z,65.35
2019-06-26T16:43:30.234Z,65.00
2019-06-26T16:45:57.460Z,65.01
2019-06-26T16:48:24.496Z,64.95
2019-06-26T16:50:51.486Z,65.08
2019-06-26T16:53:18.508Z,65.28
2019-06-26T16:55:45.499Z,65.66
2019-06-26T16:58:13.753Z,65.41
2019-06-26T17:00:40.759Z,66.16
2019-06-26T17:03:07.739Z,66.43
2019-06-26T17:05:34.734Z,65.38
2019-06-26T17:08:01.775Z,65.19
2019-06-26T17:10:28.798Z,65.42
2019-06-26T17:12:55.778Z,65.33
2019-06-26T17:15:22.750Z,64.58
2019-06-26T17:17:49.760Z,64.81
2019-06-26T17:20:17.055Z,65.46
2019-06-26T17:22:44.038Z,65.47
2019-06-26T17:25:11.203Z,66.15
2019-06-26T17:27:38.245Z,66.79
2019-06-26T17:30:05.467Z,66.79
2019-06-26T17:32:32.431Z,66.68
2019-06-26T17:34:59.523Z,66.78
2019-06-26T17:37:26.546Z,66.46
2019-06-26T17:39:53.530Z,66.99
2019-06-26T17:42:20.603Z,67.23
2019-06-26T17:44:47.592Z,67.32
2019-06-26T17:47:14.581Z,67.18
2019-06-26T17:49:45.526Z,66.67
2019-06-26T17:52:12.501Z,66.96
2019-06-26T17:54:39.493Z,66.99
2019-06-26T17:57:06.507Z,67.68
2019-06-26T17:59:33.518Z,67.35
2019-06-26T18:02:00.516Z,67.51
2019-06-26T18:04:27.534Z,67.26
2019-06-26T18:06:54.606Z,67.16
2019-06-26T18:09:21.616Z,66.59
2019-06-26T18:11:48.640Z,66.37
2019-06-26T18:14:15.686Z,66.06
2019-06-26T18:16:47.126Z,66.34
2019-06-26T18:19:14.145Z,66.57
2019-06-26T18:21:41.134Z,66.63
2019-06-26T18:24:10.765Z,67.20
2019-06-26T18:26:37.746Z,67.01
2019-06-26T18:29:04.763Z,66.07
2019-06-26T18:31:31.765Z,66.27
2019-06-26T18:33:58.756Z,66.02
2019-06-26T18:36:26.976Z,65.75
2019-06-26T18:38:53.966Z,65.72
2019-06-26T18:41:23.640Z,66.54
2019-06-26T18:43:51.012Z,66.17
2019-06-26T18:46:18.013Z,66.40
2019-06-26T18:48:45.146Z,66.30
2019-06-26T18:51:14.618Z,66.56
2019-06-26T18:53:53.128Z,66.51
2019-06-26T18:56:10.500Z,66.46
2019-06-26T18:58:41.189Z,66.27
2019-06-26T19:01:08.187Z,65.79
2019-06-26T19:03:35.232Z,65.49
2019-06-26T19:06:02.323Z,65.63
2019-06-26T19:08:29.299Z,65.27
2019-06-26T19:10:56.317Z,66.17
2019-06-26T19:13:23.366Z,66.10
2019-06-26T19:15:50.321Z,65.63
2019-06-26T19:18:17.319Z,66.01
2019-06-26T19:20:44.343Z,65.75
2019-06-26T19:23:11.306Z,65.98
2019-06-26T19:25:38.284Z,66.35
2019-06-26T19:28:05.294Z,67.15
2019-06-26T19:30:32.245Z,67.26
2019-06-26T19:32:59.195Z,67.78
2019-06-26T19:35:26.213Z,67.84
2019-06-26T19:37:53.206Z,67.95
2019-06-26T19:40:23.779Z,67.67
2019-06-26T19:42:49.387Z,67.33
2019-06-26T19:45:16.769Z,67.14
2019-06-26T19:47:43.730Z,67.51
2019-06-26T19:50:11.829Z,67.69
2019-06-26T19:52:38.795Z,67.59
2019-06-26T19:55:06.032Z,66.73
2019-06-26T19:57:35.841Z,67.58
2019-06-26T20:00:03.424Z,67.49
2019-06-26T20:02:30.522Z,67.76
2019-06-26T20:04:59.860Z,67.79
2019-06-26T20:07:26.895Z,66.86
2019-06-26T20:09:53.894Z,67.10
2019-06-26T20:12:21.014Z,67.84
2019-06-26T20:14:48.034Z,67.66
2019-06-26T20:17:15.023Z,67.70
2019-06-26T20:19:45.040Z,67.91
2019-06-26T20:22:12.130Z,67.02
2019-06-26T20:24:44.187Z,67.00
2019-06-26T20:27:07.996Z,66.07
2019-06-26T20:29:35.061Z,65.52
2019-06-26T20:32:02.023Z,66.03
2019-06-26T20:34:29.283Z,65.99
2019-06-26T20:36:56.414Z,66.29
2019-06-26T20:39:23.417Z,66.61
2019-06-26T20:41:52.726Z,66.27
2019-06-26T20:44:19.667Z,66.20
2019-06-26T20:46:46.701Z,66.07
2019-06-26T20:49:13.668Z,66.26
2019-06-26T20:51:40.628Z,66.00
2019-06-26T20:54:07.618Z,66.29
2019-06-26T20:56:37.673Z,65.95
2019-06-26T20:59:04.694Z,66.23
2019-06-26T21:01:31.653Z,65.46
2019-06-26T21:03:58.634Z,65.14
2019-06-26T21:06:25.650Z,65.14
2019-06-26T21:08:52.617Z,64.79
2019-06-26T21:11:19.666Z,65.05
2019-06-26T21:13:46.643Z,65.22
2019-06-26T21:16:13.620Z,64.54
2019-06-26T21:18:40.698Z,64.45
2019-06-26T21:21:09.953Z,64.38
2019-06-26T21:23:36.956Z,64.40
2019-06-26T21:26:03.967Z,64.53
2019-06-26T21:28:32.163Z,65.24
2019-06-26T21:30:59.177Z,65.52
2019-06-26T21:33:26.119Z,64.90
2019-06-26T21:35:55.424Z,65.37
2019-06-26T21:38:22.419Z,65.00
2019-06-26T21:40:49.375Z,64.60
2019-06-26T21:43:16.412Z,64.37
2019-06-26T21:45:43.384Z,64.91
2019-06-26T21:48:10.352Z,64.81
2019-06-26T21:50:39.660Z,64.73
2019-06-26T21:53:06.648Z,64.89
2019-06-26T21:55:35.067Z,64.69
2019-06-26T21:58:02.545Z,64.78
2019-06-26T22:00:36.131Z,64.85
2019-06-26T22:03:03.263Z,64.96
2019-06-26T22:05:30.255Z,64.98
2019-06-26T22:07:57.262Z,64.68
2019-06-26T22:10:24.455Z,65.14
2019-06-26T22:12:51.497Z,64.64
2019-06-26T22:15:18.524Z,64.79
2019-06-26T22:17:45.501Z,64.65
2019-06-26T22:20:14.723Z,64.85
2019-06-26T22:22:41.719Z,65.87
2019-06-26T22:25:08.992Z,65.05
2019-06-26T22:27:36.032Z,65.03
2019-06-26T22:30:03.783Z,64.65
2019-06-26T22:32:30.746Z,64.30
2019-06-26T22:34:57.761Z,64.69
2019-06-26T22:37:24.843Z,64.53
2019-06-26T22:39:51.844Z,64.36
2019-06-26T22:42:18.811Z,64.30
2019-06-26T22:44:47.031Z,64.45
2019-06-26T22:47:13.989Z,63.85
2019-06-26T22:49:40.945Z,63.88
2019-06-26T22:52:07.912Z,63.97
2019-06-26T22:54:34.934Z,63.71
2019-06-26T22:57:01.912Z,63.40
2019-06-26T22:59:30.608Z,63.85
2019-06-26T23:01:58.000Z,63.72
2019-06-26T23:04:24.976Z,63.96
2019-06-26T23:06:52.017Z,64.10
2019-06-26T23:09:18.990Z,63.92
2019-06-26T23:11:46.007Z,63.90
2019-06-26T23:14:14.829Z,63.94
2019-06-26T23:16:41.809Z,63.82
2019-06-26T23:19:08.783Z,63.50
2019-06-26T23:21:36.891Z,63.31
2019-06-26T23:24:03.911Z,63.46
2019-06-26T23:26:30.901Z,63.16
2019-06-26T23:28:57.923Z,63.38
2019-06-26T23:31:25.077Z,63.62
2019-06-26T23:33:52.127Z,63.46
2019-06-26T23:36:22.318Z,64.19
2019-06-26T23:38:49.294Z,64.43
2019-06-26T23:41:18.094Z,64.01
2019-06-26T23:43:45.147Z,63.70
2019-06-26T23:46:12.111Z,63.95
2019-06-26T23:48:39.125Z,63.26
2019-06-26T23:51:06.092Z,62.96
2019-06-26T23:53:33.055Z,63.00
2019-06-26T23:56:00.070Z,63.71
2019-06-26T23:58:28.155Z,63.45
